Nearby METAR Reports

 

EGVN - Brize Norton Raf, United Kingdom
Distance from station: SSE 20mi, 32km
Updated: 23/06/2018 19:50
Clear
Clear
 Wind from NE
Wind: NE 6 mph , 9 km/h
Temperature: 21°C
Dew Point: 9°C
Humidity: 46%
Barometer: 1026 hPa
Summary: Clear
Visibility: greater than 7 miles , 10 km
2018/06/23 18:50 EGVN 231850Z 05005KT CAVOK 21/09 Q1026 BLU NOSIG
EGTK - Oxford, United Kingdom
Distance from station: SE 22mi, 35km
Updated: 23/06/2018 20:20
Clear
Clear
 Wind from N
Wind: N 2 mph , 4 km/h
Temperature: 19°C
Dew Point: 11°C
Humidity: 60%
Barometer: 1025 hPa
Summary: Clear
Visibility: greater than 7 miles , 10 km
2018/06/23 19:20 EGTK 231920Z 01002KT CAVOK 19/11 Q1025
 
EGBJ - Staverton (priva, United Kingdom
Distance from station: WSW 23mi, 36km
Updated: 23/06/2018 18:50
NOT Current
Clear
Clear
 Wind from NNE
Wind: NNE 2 mph , 4 km/h
Temperature: 23°C
Dew Point: 8°C
Humidity: 38%
Barometer: 1025 hPa
Summary: Clear
Visibility: greater than 7 miles , 10 km
2018/06/23 17:50 EGBJ 231750Z 03002KT CAVOK 23/08 Q1025
EGVA - Fairford Raf, United Kingdom
Distance from station: S 27mi, 43km
Updated: 23/06/2018 19:56
Mostly cloudy
Mostly cloudy
 Wind from E
Wind: E 3 mph , 6 km/h
Temperature: 21°C
Dew Point: 9°C
Humidity: 46%
Barometer: 1025.4 hPa
Clouds: Mostly cloudy
Visibility: 6 miles , 10 km
Cloud details: Mostly cloudy 6401 m
2018/06/23 18:56 EGVA 231856Z AUTO 09003KT 9999 BKN210 21/09 A3028 RMK AO2 SLP256 T02060089
 
EGBB - Birmingham Airpo, United Kingdom
Distance from station: N 29mi, 46km
Updated: 23/06/2018 20:20
Clear
Clear
 Wind from N
Wind: N 9 mph , 15 km/h
Temperature: 19°C
Dew Point: 8°C
Humidity: 49%
Barometer: 1026 hPa
Summary: Clear
Visibility: greater than 7 miles , 10 km
2018/06/23 19:20 EGBB 231920Z 01008KT CAVOK 19/08 Q1026
EGUB - Benson Raf, United Kingdom
Distance from station: SE 40mi, 65km
Updated: 23/06/2018 19:50
Mostly cloudy
Mostly cloudy
 Wind from NE
Wind: NE 5 mph , 7 km/h
Temperature: 19°C
Dew Point: 10°C
Humidity: 56%
Barometer: 1026 hPa
Clouds: Mostly cloudy
Visibility: 6 miles , 10 km
Cloud details: Mostly cloudy 6096 m
2018/06/23 18:50 EGUB 231850Z AUTO 04004KT 9999 // BKN200/// 19/10 Q1026
 
EGTC - Cranfield, United Kingdom
Distance from station: E 46mi, 74km
Updated: 23/06/2018 12:20
NOT Current
Clear
Clear
 Wind from WNW
Wind: WNW 6 mph , 9 km/h
Temperature: 20°C
Dew Point: 6°C
Humidity: 40%
Barometer: 1028 hPa
Summary: Clear
Visibility: greater than 7 miles , 10 km
2018/06/23 11:20 EGTC 231120Z 30005KT 240V360 CAVOK 20/06 Q1028
EGWC - Cosford Raf, United Kingdom
Distance from station: NNW 46mi, 75km
Updated: 23/06/2018 15:50
NOT Current
Mostly cloudy
Mostly cloudy
 Wind from NNE
Wind: NNE 9 mph , 15 km/h
Temperature: 20°C
Dew Point: 8°C
Humidity: 46%
Barometer: 1028 hPa
Clouds: Mostly cloudy
Visibility: 6 miles , 10 km
Cloud details: Few Clouds 1158 m
Mostly cloudy 4572 m
2018/06/23 14:50 EGWC 231450Z 02008KT 9999 FEW038 BKN150 20/08 Q1028 BLU